createdAt,value
2023-04-05T00:04:34.702Z,-63
2023-04-05T00:09:36.597Z,-63
2023-04-05T00:14:37.863Z,-63
2023-04-05T00:19:39.368Z,-63
2023-04-05T00:24:43.616Z,-63
2023-04-05T00:29:45.003Z,-63
2023-04-05T00:34:46.386Z,-63
2023-04-05T00:39:47.661Z,-63
2023-04-05T00:44:48.949Z,-63
2023-04-05T00:49:50.323Z,-63
2023-04-05T00:54:51.659Z,-63
2023-04-05T00:59:52.881Z,-63
2023-04-05T01:04:54.169Z,-63
2023-04-05T01:09:55.565Z,-63
2023-04-05T01:14:56.802Z,-63
2023-04-05T01:20:01.141Z,-63
2023-04-05T01:25:02.878Z,-63
2023-04-05T01:30:04.377Z,-63
2023-04-05T01:35:05.762Z,-63
2023-04-05T01:40:07.084Z,-63
2023-04-05T01:45:09.457Z,-63
2023-04-05T01:50:10.767Z,-63
2023-04-05T01:55:11.984Z,-63
2023-04-05T02:00:13.408Z,-63
2023-04-05T02:05:14.729Z,-63
2023-04-05T02:10:16.229Z,-63
2023-04-05T02:15:17.478Z,-63
2023-04-05T02:20:18.739Z,-63
2023-04-05T02:25:20.014Z,-63
2023-04-05T02:30:21.640Z,-63
2023-04-05T02:35:23.309Z,-63
2023-04-05T02:40:25.310Z,-63
2023-04-05T02:45:27.891Z,-63
2023-04-05T02:50:29.345Z,-63
2023-04-05T02:55:31.031Z,-63
2023-04-05T03:00:32.586Z,-63
2023-04-05T03:05:33.822Z,-63
2023-04-05T03:10:36.314Z,-63
2023-04-05T03:15:37.637Z,-63
2023-04-05T03:20:40.180Z,-63
2023-04-05T03:25:41.815Z,-63
2023-04-05T03:30:43.246Z,-63
2023-04-05T03:35:44.535Z,-63
2023-04-05T03:40:46.074Z,-63
2023-04-05T03:45:47.384Z,-63
2023-04-05T03:50:48.699Z,-63
2023-04-05T03:55:50.524Z,-63
2023-04-05T04:00:52.846Z,-63
2023-04-05T04:05:54.147Z,-63
2023-04-05T04:10:55.692Z,-63
2023-04-05T04:15:56.953Z,-63
2023-04-05T04:20:58.640Z,-63
2023-04-05T04:26:01.668Z,-63
2023-04-05T04:31:05.024Z,-63
2023-04-05T04:36:06.920Z,-63
2023-04-05T04:41:14.556Z,-63
2023-04-05T04:46:15.983Z,-63
2023-04-05T04:51:17.312Z,-63
2023-04-05T04:56:18.527Z,-63
2023-04-05T05:01:19.748Z,-63
2023-04-05T05:06:22.054Z,-65
2023-04-05T05:11:23.303Z,-63
2023-04-05T05:16:24.699Z,-63
2023-04-05T05:21:26.731Z,-63
2023-04-05T05:26:27.965Z,-63
2023-04-05T05:31:29.361Z,-66
2023-04-05T05:36:31.368Z,-64
2023-04-05T05:41:32.574Z,-63
2023-04-05T05:46:33.975Z,-63
2023-04-05T05:51:36.414Z,-64
2023-04-05T05:56:37.573Z,-63
2023-04-05T06:01:42.406Z,-63
2023-04-05T06:06:43.924Z,-64
2023-04-05T06:11:55.757Z,-63
2023-04-05T06:16:58.144Z,-64
2023-04-05T06:22:00.758Z,-65
2023-04-05T06:27:02.111Z,-64
2023-04-05T06:32:03.493Z,-68
2023-04-05T06:37:04.706Z,-67
2023-04-05T06:42:06.118Z,-69
2023-04-05T06:47:07.634Z,-68
2023-04-05T06:52:08.886Z,-68
2023-04-05T06:57:10.419Z,-68
2023-04-05T07:02:12.207Z,-68
2023-04-05T07:07:13.728Z,-68
2023-04-05T07:12:15.401Z,-68
2023-04-05T07:17:16.864Z,-68
2023-04-05T07:22:18.268Z,-67
2023-04-05T07:27:19.724Z,-67
2023-04-05T07:32:21.296Z,-68
2023-04-05T07:37:22.647Z,-68
2023-04-05T07:42:24.122Z,-68
2023-04-05T07:47:25.465Z,-67
2023-04-05T07:52:26.620Z,-63
2023-04-05T07:57:27.809Z,-66
2023-04-05T08:02:29.034Z,-66
2023-04-05T08:07:30.516Z,-64
2023-04-05T08:12:35.724Z,-66
2023-04-05T08:17:38.384Z,-67
2023-04-05T08:22:39.531Z,-67
2023-04-05T08:27:41.255Z,-68
2023-04-05T08:32:42.586Z,-66
2023-04-05T08:37:44.015Z,-67
2023-04-05T08:42:45.280Z,-67
2023-04-05T08:47:46.654Z,-65
2023-04-05T08:52:49.897Z,-66
2023-04-05T08:57:51.247Z,-64
2023-04-05T09:02:52.530Z,-65
2023-04-05T09:07:53.941Z,-64
2023-04-05T09:12:55.148Z,-64
2023-04-05T09:17:56.353Z,-68
2023-04-05T09:22:57.586Z,-64
2023-04-05T09:27:58.771Z,-68
2023-04-05T09:33:00.036Z,-68
2023-04-05T09:38:01.335Z,-68
2023-04-05T09:43:02.543Z,-68
2023-04-05T09:48:03.773Z,-67
2023-04-05T09:53:05.024Z,-65
2023-04-05T09:58:06.240Z,-65
2023-04-05T10:03:07.617Z,-67
2023-04-05T10:08:08.980Z,-69
2023-04-05T10:13:10.540Z,-65
2023-04-05T10:18:11.838Z,-66
2023-04-05T10:23:13.239Z,-66
2023-04-05T10:28:14.413Z,-65
2023-04-05T10:33:15.650Z,-66
2023-04-05T10:38:16.871Z,-65
2023-04-05T10:43:18.116Z,-68
2023-04-05T10:48:19.511Z,-68
2023-04-05T10:53:20.931Z,-66
2023-04-05T10:58:22.104Z,-65
2023-04-05T11:03:23.404Z,-66
2023-04-05T11:08:24.657Z,-66
2023-04-05T11:13:25.886Z,-69
2023-04-05T11:18:27.099Z,-70
2023-04-05T11:23:28.369Z,-66
2023-04-05T11:28:29.637Z,-70
2023-04-05T11:33:30.857Z,-69
2023-04-05T11:38:32.024Z,-65
2023-04-05T11:43:35.123Z,-66
2023-04-05T11:48:36.549Z,-66
2023-04-05T11:53:37.746Z,-66
2023-04-05T11:58:38.901Z,-66
2023-04-05T12:03:40.164Z,-66
2023-04-05T12:08:42.093Z,-66
2023-04-05T12:13:43.338Z,-65
2023-04-05T12:18:44.495Z,-66
2023-04-05T12:23:45.664Z,-66
2023-04-05T12:28:47.061Z,-66
2023-04-05T12:33:48.290Z,-64
2023-04-05T12:38:50.263Z,-65
2023-04-05T12:43:53.717Z,-65
2023-04-05T12:48:54.858Z,-65
2023-04-05T12:53:56.138Z,-65
2023-04-05T12:58:57.381Z,-65
2023-04-05T13:04:08.506Z,-64
2023-04-05T13:09:16.307Z,-64
2023-04-05T13:14:17.966Z,-64
2023-04-05T13:19:19.214Z,-64
2023-04-05T13:24:20.370Z,-64
2023-04-05T13:29:21.555Z,-64
2023-04-05T13:34:22.749Z,-65
2023-04-05T13:39:23.970Z,-64
2023-04-05T13:44:25.417Z,-64
2023-04-05T13:49:26.586Z,-65
2023-04-05T13:54:27.807Z,-64
2023-04-05T13:59:29.121Z,-64
2023-04-05T14:04:30.467Z,-64
2023-04-05T14:09:32.358Z,-66
2023-04-05T14:14:33.572Z,-66
2023-04-05T14:19:34.742Z,-67
2023-04-05T14:24:36.019Z,-65
2023-04-05T14:29:37.256Z,-67
2023-04-05T14:34:38.463Z,-65
2023-04-05T14:39:39.687Z,-68
2023-04-05T14:44:40.891Z,-67
2023-04-05T14:49:42.241Z,-65
2023-04-05T14:54:44.666Z,-67
2023-04-05T14:59:46.034Z,-66
2023-04-05T15:04:47.233Z,-67
2023-04-05T15:09:48.761Z,-66
2023-04-05T15:14:50.800Z,-66
2023-04-05T15:19:52.017Z,-65
2023-04-05T15:24:53.198Z,-66
2023-04-05T15:29:54.358Z,-65
2023-04-05T15:34:55.741Z,-65
2023-04-05T15:39:56.943Z,-66
2023-04-05T15:44:58.074Z,-65
2023-04-05T15:49:59.210Z,-66
2023-04-05T15:55:00.639Z,-65
2023-04-05T16:00:01.875Z,-66
2023-04-05T16:05:03.087Z,-64
2023-04-05T16:10:04.439Z,-64
2023-04-05T16:15:05.865Z,-66
2023-04-05T16:20:07.093Z,-67
2023-04-05T16:25:08.268Z,-64
2023-04-05T16:30:09.467Z,-67
2023-04-05T16:35:10.893Z,-68
2023-04-05T16:40:12.170Z,-64
2023-04-05T16:45:13.617Z,-67
2023-04-05T16:50:14.781Z,-66
2023-04-05T16:55:15.993Z,-67
2023-04-05T17:00:17.187Z,-65
2023-04-05T17:05:18.468Z,-66
2023-04-05T17:10:19.679Z,-66
2023-04-05T17:15:21.086Z,-64
2023-04-05T17:20:23.122Z,-64
2023-04-05T17:25:24.320Z,-64
2023-04-05T17:30:26.178Z,-67
2023-04-05T17:35:27.346Z,-67
2023-04-05T17:40:28.865Z,-67
2023-04-05T17:45:30.123Z,-68
2023-04-05T17:50:31.363Z,-68
2023-04-05T17:55:33.441Z,-67
2023-04-05T18:00:34.714Z,-67
2023-04-05T18:05:36.217Z,-67
2023-04-05T18:10:37.378Z,-67
2023-04-05T18:15:38.622Z,-67
2023-04-05T18:20:40.525Z,-68
2023-04-05T18:25:42.242Z,-64
2023-04-05T18:30:43.416Z,-69
2023-04-05T18:35:44.651Z,-64
2023-04-05T18:40:46.097Z,-66
2023-04-05T18:45:47.398Z,-69
2023-04-05T18:50:49.762Z,-67
2023-04-05T18:55:51.239Z,-64
2023-04-05T19:00:52.780Z,-64
2023-04-05T19:05:53.988Z,-63
2023-04-05T19:10:55.233Z,-66
2023-04-05T19:15:56.473Z,-64
2023-04-05T19:20:57.675Z,-66
2023-04-05T19:25:59.038Z,-67
2023-04-05T19:31:00.580Z,-67
2023-04-05T19:36:02.037Z,-67
2023-04-05T19:41:03.413Z,-63
2023-04-05T19:46:04.708Z,-63
2023-04-05T19:51:06.764Z,-67
2023-04-05T19:56:08.148Z,-63
2023-04-05T20:01:09.352Z,-63
2023-04-05T20:06:10.616Z,-63
2023-04-05T20:11:11.897Z,-62
2023-04-05T20:16:13.208Z,-63
2023-04-05T20:21:14.478Z,-63
2023-04-05T20:26:15.743Z,-64
2023-04-05T20:31:16.968Z,-66
2023-04-05T20:36:18.194Z,-63
2023-04-05T20:41:19.755Z,-63
2023-04-05T20:46:21.015Z,-65
2023-04-05T20:51:22.265Z,-65
2023-04-05T20:56:23.424Z,-63
2023-04-05T21:01:24.794Z,-63
2023-04-05T21:06:26.340Z,-64
2023-04-05T21:11:27.529Z,-63
2023-04-05T21:16:28.859Z,-63
2023-04-05T21:21:31.164Z,-62
2023-04-05T21:26:32.401Z,-62
2023-04-05T21:31:33.590Z,-62
2023-04-05T21:36:34.815Z,-62
2023-04-05T21:41:36.007Z,-62
2023-04-05T21:46:37.328Z,-62
2023-04-05T21:51:38.568Z,-62
2023-04-05T21:56:40.500Z,-62
2023-04-05T22:01:41.787Z,-62
2023-04-05T22:06:43.000Z,-62
2023-04-05T22:11:44.165Z,-62
2023-04-05T22:16:45.410Z,-62
2023-04-05T22:21:46.688Z,-62
2023-04-05T22:26:48.870Z,-62
2023-04-05T22:31:50.096Z,-62
2023-04-05T22:36:51.313Z,-62
2023-04-05T22:41:52.546Z,-62
2023-04-05T22:46:53.746Z,-62
2023-04-05T22:51:54.989Z,-62
2023-04-05T22:56:56.540Z,-62
2023-04-05T23:01:57.693Z,-62
2023-04-05T23:06:58.916Z,-62
2023-04-05T23:12:00.153Z,-62
2023-04-05T23:17:01.382Z,-62
2023-04-05T23:22:02.560Z,-62
2023-04-05T23:27:03.780Z,-62
2023-04-05T23:32:06.747Z,-62
2023-04-05T23:37:07.989Z,-62
2023-04-05T23:42:09.326Z,-62
2023-04-05T23:47:10.525Z,-62
2023-04-05T23:52:11.814Z,-62
2023-04-05T23:57:12.982Z,-62
